Time;durP1;ratioP1;P1;durP2;ratioP2;P2;SDS_P1;SDS_P2;PMS_P1;PMS_P2;Temp;Humidity;BMP_temperature;BMP_pressure;BME280_temperature;BME280_humidity;BME280_pressure;Samples;Min_cycle;Max_cycle;Signal;HPM_P1;HPM_P2
2024/01/09 00:01:19;;;;;;;;;;;;;;;;;;5054056;28;19909;-69
2024/01/09 00:03:45;;;;;;;;;;;;;;;;;;5053975;28;19952;-70
2024/01/09 00:06:11;;;;;;;;;;;;;;;;;;5053544;28;19909;-69
2024/01/09 00:08:37;;;;;;;;;;;;;;;;;;5052587;28;19915;-69
2024/01/09 00:11:03;;;;;;;;;;;;;;;;;;5053851;28;19909;-69
2024/01/09 00:13:29;;;;;;;;;;;;;;;;;;5053494;28;19955;-70
2024/01/09 00:15:55;;;;;;;;;;;;;;;;;;5052492;28;19915;-70
2024/01/09 00:18:21;;;;;;;;;;;;;;;;;;5053973;28;19909;-70
2024/01/09 00:20:47;;;;;;;;;;;;;;;;;;5052080;28;19966;-69
2024/01/09 00:23:13;;;;;;;;;;;;;;;;;;5053728;28;19991;-69
2024/01/09 00:25:39;;;;;;;;;;;;;;;;;;5053979;28;19999;-69
2024/01/09 00:28:05;;;;;;;;;;;;;;;;;;5053581;28;19924;-70
2024/01/09 00:30:31;;;;;;;;;;;;;;;;;;5053967;28;20001;-70
2024/01/09 00:32:57;;;;;;;;;;;;;;;;;;5053567;28;20269;-70
2024/01/09 00:35:23;;;;;;;;;;;;;;;;;;5053283;28;19909;-70
2024/01/09 00:37:48;;;;;;;;;;;;;;;;;;5053741;28;19909;-70
2024/01/09 00:40:14;;;;;;;;;;;;;;;;;;5057341;28;20015;-69
2024/01/09 00:42:40;;;;;;;;;;;;;;;;;;5056396;28;19909;-70
2024/01/09 00:45:07;;;;;;;;;;;;;;;;;;5057681;28;19963;-69
2024/01/09 00:47:33;;;;;;;;;;;;;;;;;;5057571;28;19908;-69
2024/01/09 00:49:59;;;;;;;;;;;;;;;;;;5057857;28;19931;-69
2024/01/09 00:52:25;;;;;;;;;;;;;;;;;;5057769;28;19999;-69
2024/01/09 00:54:51;;;;;;;;;;;;;;;;;;5056997;28;20289;-69
2024/01/09 00:57:16;;;;;;;;;;;;;;;;;;5057257;28;20007;-70
2024/01/09 00:59:42;;;;;;;;;;;;;;;;;;5057290;28;19924;-69
2024/01/09 01:02:08;;;;;;;;;;;;;;;;;;5056949;28;19916;-70
2024/01/09 01:04:34;;;;;;;;;;;;;;;;;;5057330;28;19958;-69
2024/01/09 01:07:00;;;;;;;;;;;;;;;;;;5057185;28;20003;-69
2024/01/09 01:09:26;;;;;;;;;;;;;;;;;;5056860;28;19916;-69
2024/01/09 01:11:52;;;;;;;;;;;;;;;;;;5055969;28;20353;-69
2024/01/09 01:14:18;;;;;;;;;;;;;;;;;;5057111;28;19909;-69
2024/01/09 01:16:44;;;;;;;;;;;;;;;;;;5056681;28;19912;-69
2024/01/09 01:19:10;;;;;;;;;;;;;;;;;;5057105;28;20354;-69
2024/01/09 01:21:36;;;;;;;;;;;;;;;;;;5056971;28;20372;-69
2024/01/09 01:24:02;;;;;;;;;;;;;;;;;;5056677;28;20525;-70
2024/01/09 01:26:29;;;;;;;;;;;;;;;;;;5055693;28;20277;-69
2024/01/09 01:28:55;;;;;;;;;;;;;;;;;;5056825;28;19909;-69
2024/01/09 01:31:21;;;;;;;;;;;;;;;;;;5056398;28;19909;-69
2024/01/09 01:33:47;;;;;;;;;;;;;;;;;;5055808;28;20050;-70
2024/01/09 01:36:13;;;;;;;;;;;;;;;;;;5055467;28;19909;-69
2024/01/09 01:38:39;;;;;;;;;;;;;;;;;;5056278;28;19912;-69
2024/01/09 01:41:05;;;;;;;;;;;;;;;;;;5056559;28;19909;-69
2024/01/09 01:43:31;;;;;;;;;;;;;;;;;;5056199;28;20007;-69
2024/01/09 01:45:56;;;;;;;;;;;;;;;;;;5056980;28;19915;-69
2024/01/09 01:48:22;;;;;;;;;;;;;;;;;;5056525;28;19909;-69
2024/01/09 01:50:49;;;;;;;;;;;;;;;;;;5056555;28;20440;-69
2024/01/09 01:53:15;;;;;;;;;;;;;;;;;;5056502;28;19952;-69
2024/01/09 01:55:41;;;;;;;;;;;;;;;;;;5056173;28;19917;-69
2024/01/09 01:58:07;;;;;;;;;;;;;;;;;;5056205;28;20400;-69
2024/01/09 02:00:33;;;;;;;;;;;;;;;;;;5054991;28;20284;-68
2024/01/09 02:02:58;;;;;;;;;;;;;;;;;;5054916;28;19909;-68
2024/01/09 02:05:24;;;;;;;;;;;;;;;;;;5055783;28;19913;-69
2024/01/09 02:07:51;;;;;;;;;;;;;;;;;;5056141;28;19940;-69
2024/01/09 02:10:17;;;;;;;;;;;;;;;;;;5056020;28;19954;-69
2024/01/09 02:12:43;;;;;;;;;;;;;;;;;;5054365;28;19912;-69
2024/01/09 02:15:09;;;;;;;;;;;;;;;;;;5054656;28;19909;-69
2024/01/09 02:17:35;;;;;;;;;;;;;;;;;;5055954;28;19909;-69
2024/01/09 02:20:01;;;;;;;;;;;;;;;;;;5055351;28;20357;-69
2024/01/09 02:22:27;;;;;;;;;;;;;;;;;;5056051;28;20361;-69
2024/01/09 02:24:53;;;;;;;;;;;;;;;;;;5055735;28;19909;-69
2024/01/09 02:27:18;;;;;;;;;;;;;;;;;;5054063;28;19909;-69
2024/01/09 02:29:44;;;;;;;;;;;;;;;;;;5055653;28;19975;-69
2024/01/09 02:32:10;;;;;;;;;;;;;;;;;;5055693;28;19909;-69
2024/01/09 02:34:36;;;;;;;;;;;;;;;;;;5055312;28;20288;-69
2024/01/09 02:37:02;;;;;;;;;;;;;;;;;;5055539;28;19916;-69
2024/01/09 02:39:29;;;;;;;;;;;;;;;;;;5055511;28;19917;-68
2024/01/09 02:41:55;;;;;;;;;;;;;;;;;;5055233;28;19909;-69
2024/01/09 02:44:21;;;;;;;;;;;;;;;;;;5055388;28;19976;-69
2024/01/09 02:46:47;;;;;;;;;;;;;;;;;;5054968;28;19908;-69
2024/01/09 02:49:13;;;;;;;;;;;;;;;;;;5055284;28;19916;-69
2024/01/09 02:51:39;;;;;;;;;;;;;;;;;;5055678;28;19908;-69
2024/01/09 02:54:05;;;;;;;;;;;;;;;;;;5054786;28;19909;-69
2024/01/09 02:56:32;;;;;;;;;;;;;;;;;;5054985;28;20399;-69
2024/01/09 02:58:58;;;;;;;;;;;;;;;;;;5055112;28;19920;-69
2024/01/09 03:01:24;;;;;;;;;;;;;;;;;;5054104;28;19917;-69
2024/01/09 03:03:50;;;;;;;;;;;;;;;;;;5053767;28;20003;-69
2024/01/09 03:06:16;;;;;;;;;;;;;;;;;;5054961;28;19909;-69
2024/01/09 03:08:42;;;;;;;;;;;;;;;;;;5054714;28;19975;-69
2024/01/09 03:11:08;;;;;;;;;;;;;;;;;;5054930;28;20377;-69
2024/01/09 03:13:34;;;;;;;;;;;;;;;;;;5054956;28;19913;-69
2024/01/09 03:16:00;;;;;;;;;;;;;;;;;;5054390;28;19909;-69
2024/01/09 03:18:26;;;;;;;;;;;;;;;;;;5053384;28;20281;-69
2024/01/09 03:20:52;;;;;;;;;;;;;;;;;;5053432;28;19912;-69
2024/01/09 03:23:18;;;;;;;;;;;;;;;;;;5054259;28;19909;-69
2024/01/09 03:25:44;;;;;;;;;;;;;;;;;;5054677;28;20070;-69
2024/01/09 03:28:09;;;;;;;;;;;;;;;;;;5054867;28;19909;-69
2024/01/09 03:30:35;;;;;;;;;;;;;;;;;;5054184;28;19909;-69
2024/01/09 03:33:01;;;;;;;;;;;;;;;;;;5054780;28;20010;-69
2024/01/09 03:35:27;;;;;;;;;;;;;;;;;;5054505;28;19909;-69
2024/01/09 03:37:53;;;;;;;;;;;;;;;;;;5053999;28;20357;-69
2024/01/09 03:40:19;;;;;;;;;;;;;;;;;;5054963;28;20349;-68
2024/01/09 03:42:45;;;;;;;;;;;;;;;;;;5054329;28;20357;-69
2024/01/09 03:45:11;;;;;;;;;;;;;;;;;;5053788;28;19909;-69
2024/01/09 03:47:37;;;;;;;;;;;;;;;;;;5054258;28;19908;-69
2024/01/09 03:50:03;;;;;;;;;;;;;;;;;;5054081;28;20389;-69
2024/01/09 03:52:29;;;;;;;;;;;;;;;;;;5052818;28;20335;-69
2024/01/09 03:54:55;;;;;;;;;;;;;;;;;;5054235;28;20345;-69
2024/01/09 03:57:21;;;;;;;;;;;;;;;;;;5053425;28;20262;-69
2024/01/09 03:59:47;;;;;;;;;;;;;;;;;;5053994;28;20012;-69
2024/01/09 04:02:13;;;;;;;;;;;;;;;;;;5053946;28;19916;-69
2024/01/09 04:04:39;;;;;;;;;;;;;;;;;;5053513;28;19909;-69
2024/01/09 04:07:05;;;;;;;;;;;;;;;;;;5053929;28;19919;-69
2024/01/09 04:09:31;;;;;;;;;;;;;;;;;;5054326;28;19916;-69
2024/01/09 04:11:57;;;;;;;;;;;;;;;;;;5053388;28;19909;-69
2024/01/09 04:14:22;;;;;;;;;;;;;;;;;;5052954;28;20011;-69
2024/01/09 04:16:48;;;;;;;;;;;;;;;;;;5053802;28;19909;-69
2024/01/09 04:19:14;;;;;;;;;;;;;;;;;;5053231;28;19936;-69
2024/01/09 04:21:40;;;;;;;;;;;;;;;;;;5054123;28;19928;-68
2024/01/09 04:24:06;;;;;;;;;;;;;;;;;;5053678;28;19909;-69
2024/01/09 04:26:32;;;;;;;;;;;;;;;;;;5053226;28;20341;-69
2024/01/09 04:28:58;;;;;;;;;;;;;;;;;;5053510;28;19909;-69
2024/01/09 04:31:24;;;;;;;;;;;;;;;;;;5053577;28;19981;-69
2024/01/09 04:33:50;;;;;;;;;;;;;;;;;;5053172;28;19909;-69
2024/01/09 04:36:17;;;;;;;;;;;;;;;;;;5053537;28;19932;-69
2024/01/09 04:38:43;;;;;;;;;;;;;;;;;;5052089;28;19913;-69
2024/01/09 04:41:09;;;;;;;;;;;;;;;;;;5051810;28;19919;-69
2024/01/09 04:43:34;;;;;;;;;;;;;;;;;;5053779;28;20002;-69
2024/01/09 04:46:00;;;;;;;;;;;;;;;;;;5053512;28;19909;-69
2024/01/09 04:48:26;;;;;;;;;;;;;;;;;;5053081;28;20284;-69
2024/01/09 04:50:52;;;;;;;;;;;;;;;;;;5053481;28;20335;-69
2024/01/09 04:53:18;;;;;;;;;;;;;;;;;;5053347;28;19909;-69
2024/01/09 04:55:44;;;;;;;;;;;;;;;;;;5052940;28;20032;-69
2024/01/09 04:58:10;;;;;;;;;;;;;;;;;;5052020;28;19909;-69
2024/01/09 05:00:36;;;;;;;;;;;;;;;;;;5052820;28;19924;-69
2024/01/09 05:03:02;;;;;;;;;;;;;;;;;;5053361;28;19944;-69
2024/01/09 05:05:28;;;;;;;;;;;;;;;;;;5053324;28;19916;-69
2024/01/09 05:07:54;;;;;;;;;;;;;;;;;;5051529;28;19991;-69
2024/01/09 05:10:20;;;;;;;;;;;;;;;;;;5053267;28;19970;-70
2024/01/09 05:12:46;;;;;;;;;;;;;;;;;;5051975;28;19941;-69
2024/01/09 05:15:12;;;;;;;;;;;;;;;;;;5051485;28;19909;-69
2024/01/09 05:17:38;;;;;;;;;;;;;;;;;;5053208;28;19935;-68
2024/01/09 05:20:04;;;;;;;;;;;;;;;;;;5052994;28;20335;-68
2024/01/09 05:22:30;;;;;;;;;;;;;;;;;;5052702;28;19909;-68
2024/01/09 05:24:56;;;;;;;;;;;;;;;;;;5053594;28;19917;-68
2024/01/09 05:27:22;;;;;;;;;;;;;;;;;;5056911;28;20358;-68
2024/01/09 05:29:48;;;;;;;;;;;;;;;;;;5056482;28;19971;-69
2024/01/09 05:32:14;;;;;;;;;;;;;;;;;;5056739;28;19928;-68
2024/01/09 05:34:40;;;;;;;;;;;;;;;;;;5056749;28;19909;-68
2024/01/09 05:37:06;;;;;;;;;;;;;;;;;;5056292;28;19908;-68
2024/01/09 05:39:31;;;;;;;;;;;;;;;;;;5056524;28;20016;-68
2024/01/09 05:41:57;;;;;;;;;;;;;;;;;;5056623;28;19909;-68
2024/01/09 05:44:23;;;;;;;;;;;;;;;;;;5054907;28;19908;-68
2024/01/09 05:46:50;;;;;;;;;;;;;;;;;;5056767;28;19944;-70
2024/01/09 05:49:16;;;;;;;;;;;;;;;;;;5056414;28;20329;-68
2024/01/09 05:51:42;;;;;;;;;;;;;;;;;;5055984;28;19909;-68
2024/01/09 05:54:08;;;;;;;;;;;;;;;;;;5056398;28;20002;-68
2024/01/09 05:56:33;;;;;;;;;;;;;;;;;;5054880;28;20025;-68
2024/01/09 05:58:59;;;;;;;;;;;;;;;;;;5055778;28;20354;-68
2024/01/09 06:01:26;;;;;;;;;;;;;;;;;;5056580;28;20368;-68
2024/01/09 06:03:51;;;;;;;;;;;;;;;;;;5055708;28;19909;-68
2024/01/09 06:06:17;;;;;;;;;;;;;;;;;;5056124;28;20019;-68
2024/01/09 06:08:44;;;;;;;;;;;;;;;;;;5054849;28;20049;-68
2024/01/09 06:11:10;;;;;;;;;;;;;;;;;;5054298;28;20407;-68
2024/01/09 06:13:36;;;;;;;;;;;;;;;;;;5056042;28;19909;-68
2024/01/09 06:16:01;;;;;;;;;;;;;;;;;;5056420;28;20409;-68
2024/01/09 06:18:27;;;;;;;;;;;;;;;;;;5055358;28;20257;-68
2024/01/09 06:20:53;;;;;;;;;;;;;;;;;;5054645;28;19938;-68
2024/01/09 06:23:19;;;;;;;;;;;;;;;;;;5056094;28;19916;-69
2024/01/09 06:25:45;;;;;;;;;;;;;;;;;;5055327;28;19912;-69
2024/01/09 06:28:11;;;;;;;;;;;;;;;;;;5056130;28;19916;-68
2024/01/09 06:30:37;;;;;;;;;;;;;;;;;;5054377;28;19955;-68
2024/01/09 06:33:03;;;;;;;;;;;;;;;;;;5054024;28;20003;-69
2024/01/09 06:35:29;;;;;;;;;;;;;;;;;;5055138;28;19997;-69
2024/01/09 06:37:55;;;;;;;;;;;;;;;;;;5055267;28;19909;-69
2024/01/09 06:40:23;;;;;;;;;;;;;;;;;;5055092;28;19920;-69
2024/01/09 06:42:49;;;;;;;;;;;;;;;;;;5054183;28;20365;-69
2024/01/09 06:45:15;;;;;;;;;;;;;;;;;;5055556;28;19999;-69
2024/01/09 06:47:41;;;;;;;;;;;;;;;;;;5055102;28;20003;-70
2024/01/09 06:50:07;;;;;;;;;;;;;;;;;;5055440;28;19948;-68
2024/01/09 06:52:33;;;;;;;;;;;;;;;;;;5055408;28;19955;-68
2024/01/09 06:54:59;;;;;;;;;;;;;;;;;;5054775;28;19962;-68
2024/01/09 06:57:25;;;;;;;;;;;;;;;;;;5055237;28;19917;-69
2024/01/09 06:59:51;;;;;;;;;;;;;;;;;;5053807;28;19917;-69
2024/01/09 07:02:17;;;;;;;;;;;;;;;;;;5054814;28;19909;-69
2024/01/09 07:04:43;;;;;;;;;;;;;;;;;;5055097;28;20052;-69
2024/01/09 07:07:09;;;;;;;;;;;;;;;;;;5053347;28;19909;-68
2024/01/09 07:09:37;;;;;;;;;;;;;;;;;;5053660;28;19909;-69
2024/01/09 07:12:03;;;;;;;;;;;;;;;;;;5054809;28;19909;-69
2024/01/09 07:14:29;;;;;;;;;;;;;;;;;;5054431;28;19916;-68
2024/01/09 07:16:55;;;;;;;;;;;;;;;;;;5053503;28;19909;-68
2024/01/09 07:19:21;;;;;;;;;;;;;;;;;;5054646;28;19913;-68
2024/01/09 07:21:47;;;;;;;;;;;;;;;;;;5054340;28;19916;-68
2024/01/09 07:24:13;;;;;;;;;;;;;;;;;;5053363;28;19909;-69
2024/01/09 07:26:39;;;;;;;;;;;;;;;;;;5054726;28;19992;-69
2024/01/09 07:29:05;;;;;;;;;;;;;;;;;;5054176;28;19910;-68
2024/01/09 07:31:31;;;;;;;;;;;;;;;;;;5054508;28;19916;-68
2024/01/09 07:33:58;;;;;;;;;;;;;;;;;;5054678;28;19954;-68
2024/01/09 07:36:24;;;;;;;;;;;;;;;;;;5053961;28;19941;-68
2024/01/09 07:38:49;;;;;;;;;;;;;;;;;;5054275;28;19920;-68
2024/01/09 07:41:19;;;;;;;;;;;;;;;;;;5053066;28;19908;-68
2024/01/09 07:43:44;;;;;;;;;;;;;;;;;;5054005;28;19913;-68
2024/01/09 07:46:10;;;;;;;;;;;;;;;;;;5052993;28;19915;-68
2024/01/09 07:48:36;;;;;;;;;;;;;;;;;;5054149;28;19962;-68
2024/01/09 07:51:02;;;;;;;;;;;;;;;;;;5053735;28;19908;-69
2024/01/09 07:53:28;;;;;;;;;;;;;;;;;;5054144;28;20329;-68
2024/01/09 07:55:54;;;;;;;;;;;;;;;;;;5054172;28;20351;-69
2024/01/09 07:58:20;;;;;;;;;;;;;;;;;;5052370;28;19975;-69
2024/01/09 08:00:46;;;;;;;;;;;;;;;;;;5054027;28;19917;-69
2024/01/09 08:03:16;;;;;;;;;;;;;;;;;;5053978;28;19909;-69
2024/01/09 08:05:42;;;;;;;;;;;;;;;;;;5053945;28;19921;-69
2024/01/09 08:08:08;;;;;;;;;;;;;;;;;;5053909;28;19935;-69
2024/01/09 08:10:34;;;;;;;;;;;;;;;;;;5053510;28;19992;-69
2024/01/09 08:13:00;;;;;;;;;;;;;;;;;;5054071;28;19930;-68
2024/01/09 08:15:26;;;;;;;;;;;;;;;;;;5053766;28;20058;-69
2024/01/09 08:17:52;;;;;;;;;;;;;;;;;;5053272;28;19908;-69
2024/01/09 08:20:18;;;;;;;;;;;;;;;;;;5053707;28;19921;-69
2024/01/09 08:22:44;;;;;;;;;;;;;;;;;;5053613;28;19916;-69
2024/01/09 08:25:10;;;;;;;;;;;;;;;;;;5053306;28;20004;-69
2024/01/09 08:27:36;;;;;;;;;;;;;;;;;;5053756;28;19909;-68
2024/01/09 08:30:02;;;;;;;;;;;;;;;;;;5053923;28;19954;-69
2024/01/09 08:32:28;;;;;;;;;;;;;;;;;;5053260;28;19955;-68
2024/01/09 08:34:54;;;;;;;;;;;;;;;;;;5053822;28;19930;-68
2024/01/09 08:37:20;;;;;;;;;;;;;;;;;;5053477;28;20377;-69
2024/01/09 08:39:46;;;;;;;;;;;;;;;;;;5053049;28;19924;-69
2024/01/09 08:42:12;;;;;;;;;;;;;;;;;;5053462;28;19908;-69
2024/01/09 08:44:38;;;;;;;;;;;;;;;;;;5053566;28;19909;-69
2024/01/09 08:47:04;;;;;;;;;;;;;;;;;;5052955;28;19912;-69
2024/01/09 08:49:30;;;;;;;;;;;;;;;;;;5053435;28;19916;-69
2024/01/09 08:51:56;;;;;;;;;;;;;;;;;;5052212;28;19909;-69
2024/01/09 08:54:22;;;;;;;;;;;;;;;;;;5052983;28;19916;-69
2024/01/09 08:56:48;;;;;;;;;;;;;;;;;;5053309;28;19960;-69
2024/01/09 08:59:14;;;;;;;;;;;;;;;;;;5054278;28;19924;-69
2024/01/09 09:01:40;;;;;;;;;;;;;;;;;;5055741;28;20381;-69
2024/01/09 09:04:06;;;;;;;;;;;;;;;;;;5057675;28;19909;-69
2024/01/09 09:06:32;;;;;;;;;;;;;;;;;;5055999;28;19915;-69
2024/01/09 09:08:58;;;;;;;;;;;;;;;;;;5057393;28;20007;-69
2024/01/09 09:11:24;;;;;;;;;;;;;;;;;;5055943;28;19913;-69
2024/01/09 09:13:50;;;;;;;;;;;;;;;;;;5056743;28;19909;-69
2024/01/09 09:16:16;;;;;;;;;;;;;;;;;;5057088;28;19913;-69
2024/01/09 09:18:44;;;;;;;;;;;;;;;;;;5056983;28;19913;-69
2024/01/09 09:21:10;;;;;;;;;;;;;;;;;;5056713;28;19959;-69
2024/01/09 09:23:36;;;;;;;;;;;;;;;;;;5055592;28;19908;-69
2024/01/09 09:26:03;;;;;;;;;;;;;;;;;;5056975;28;19915;-69
2024/01/09 09:28:29;;;;;;;;;;;;;;;;;;5056771;28;19909;-69
2024/01/09 09:30:55;;;;;;;;;;;;;;;;;;5055613;28;20365;-69
2024/01/09 09:33:21;;;;;;;;;;;;;;;;;;5055576;28;19916;-70
2024/01/09 09:35:47;;;;;;;;;;;;;;;;;;5056432;28;19999;-69
2024/01/09 09:38:13;;;;;;;;;;;;;;;;;;5056757;28;19974;-69
2024/01/09 09:40:39;;;;;;;;;;;;;;;;;;5057082;28;19960;-69
2024/01/09 09:43:06;;;;;;;;;;;;;;;;;;5056225;28;19909;-69
2024/01/09 09:45:32;;;;;;;;;;;;;;;;;;5055251;28;19959;-71
2024/01/09 09:47:57;;;;;;;;;;;;;;;;;;5056550;28;19913;-69
2024/01/09 09:50:23;;;;;;;;;;;;;;;;;;5056059;28;20467;-70
2024/01/09 09:52:49;;;;;;;;;;;;;;;;;;5056404;28;20003;-69
2024/01/09 09:55:15;;;;;;;;;;;;;;;;;;5056420;28;19908;-69
2024/01/09 09:57:41;;;;;;;;;;;;;;;;;;5056016;28;19935;-69
2024/01/09 10:00:10;;;;;;;;;;;;;;;;;;5056165;28;19921;-69
2024/01/09 10:02:36;;;;;;;;;;;;;;;;;;5054949;28;19908;-69
2024/01/09 10:05:02;;;;;;;;;;;;;;;;;;5055798;28;19909;-69
2024/01/09 10:07:28;;;;;;;;;;;;;;;;;;5056219;28;19909;-69
2024/01/09 10:09:55;;;;;;;;;;;;;;;;;;5055893;28;19920;-69
2024/01/09 10:12:24;;;;;;;;;;;;;;;;;;5054922;28;19909;-69
2024/01/09 10:14:50;;;;;;;;;;;;;;;;;;5055974;28;19958;-70
2024/01/09 10:17:16;;;;;;;;;;;;;;;;;;5055761;28;19940;-69
2024/01/09 10:19:42;;;;;;;;;;;;;;;;;;5055764;28;19917;-70
2024/01/09 10:22:08;;;;;;;;;;;;;;;;;;5054644;28;19909;-69
2024/01/09 10:24:34;;;;;;;;;;;;;;;;;;5055472;28;19963;-69
2024/01/09 10:27:00;;;;;;;;;;;;;;;;;;5055987;28;19908;-70
2024/01/09 10:29:26;;;;;;;;;;;;;;;;;;5055884;28;19940;-70
2024/01/09 10:31:52;;;;;;;;;;;;;;;;;;5055621;28;20365;-71
2024/01/09 10:34:19;;;;;;;;;;;;;;;;;;5055673;28;20416;-69
2024/01/09 10:36:45;;;;;;;;;;;;;;;;;;5054403;28;19939;-70
2024/01/09 10:39:11;;;;;;;;;;;;;;;;;;5055017;28;19913;-70
2024/01/09 10:41:37;;;;;;;;;;;;;;;;;;5055476;28;19967;-70
2024/01/09 10:44:03;;;;;;;;;;;;;;;;;;5054288;28;20230;-70
2024/01/09 10:46:29;;;;;;;;;;;;;;;;;;5053773;28;19959;-70
2024/01/09 10:48:55;;;;;;;;;;;;;;;;;;5054129;28;19916;-70
2024/01/09 10:51:22;;;;;;;;;;;;;;;;;;5054167;28;19908;-70
2024/01/09 10:53:48;;;;;;;;;;;;;;;;;;5053596;28;20293;-70
2024/01/09 10:56:15;;;;;;;;;;;;;;;;;;5053782;28;19928;-70
2024/01/09 10:58:41;;;;;;;;;;;;;;;;;;5055182;28;19908;-70
2024/01/09 11:01:07;;;;;;;;;;;;;;;;;;5054797;28;20292;-70
2024/01/09 11:03:33;;;;;;;;;;;;;;;;;;5055205;28;20345;-70
2024/01/09 11:05:59;;;;;;;;;;;;;;;;;;5055076;28;19932;-68
2024/01/09 11:08:25;;;;;;;;;;;;;;;;;;5054694;28;19909;-70
2024/01/09 11:10:51;;;;;;;;;;;;;;;;;;5054956;28;19909;-68
2024/01/09 11:13:17;;;;;;;;;;;;;;;;;;5054580;28;19909;-68
2024/01/09 11:15:47;;;;;;;;;;;;;;;;;;5054994;28;19909;-70
2024/01/09 11:18:13;;;;;;;;;;;;;;;;;;5054926;28;20383;-69
2024/01/09 11:20:39;;;;;;;;;;;;;;;;;;5054407;28;19916;-70
2024/01/09 11:23:05;;;;;;;;;;;;;;;;;;5054617;28;19916;-69
2024/01/09 11:25:33;;;;;;;;;;;;;;;;;;5055293;28;19909;-69
2024/01/09 11:28:00;;;;;;;;;;;;;;;;;;5054466;28;19909;-70
2024/01/09 11:30:29;;;;;;;;;;;;;;;;;;5053313;28;19909;-70
2024/01/09 11:32:55;;;;;;;;;;;;;;;;;;5053343;28;19913;-70
2024/01/09 11:35:21;;;;;;;;;;;;;;;;;;5054510;28;20007;-70
2024/01/09 11:37:47;;;;;;;;;;;;;;;;;;5053208;28;19916;-70
2024/01/09 11:40:13;;;;;;;;;;;;;;;;;;5054443;28;19916;-70
2024/01/09 11:42:40;;;;;;;;;;;;;;;;;;5054259;28;19916;-69
2024/01/09 11:45:07;;;;;;;;;;;;;;;;;;5054331;28;19954;-70
2024/01/09 11:47:33;;;;;;;;;;;;;;;;;;5053093;28;19909;-70
2024/01/09 11:49:59;;;;;;;;;;;;;;;;;;5053902;28;20272;-69
2024/01/09 11:52:25;;;;;;;;;;;;;;;;;;5054278;28;19909;-70
2024/01/09 11:54:51;;;;;;;;;;;;;;;;;;5054176;28;19909;-69
2024/01/09 11:57:19;;;;;;;;;;;;;;;;;;5053721;28;19926;-70
2024/01/09 11:59:45;;;;;;;;;;;;;;;;;;5054126;28;19982;-70
2024/01/09 12:02:13;;;;;;;;;;;;;;;;;;5053346;28;20135;-70
2024/01/09 12:04:39;;;;;;;;;;;;;;;;;;5053690;28;19909;-70
2024/01/09 12:07:05;;;;;;;;;;;;;;;;;;5053970;28;19912;-70
2024/01/09 12:09:31;;;;;;;;;;;;;;;;;;5052238;28;20332;-70
2024/01/09 12:11:57;;;;;;;;;;;;;;;;;;5054205;28;19905;-70
2024/01/09 12:14:23;;;;;;;;;;;;;;;;;;5053926;28;19986;-70
2024/01/09 12:16:51;;;;;;;;;;;;;;;;;;5052110;28;19905;-70
2024/01/09 12:19:16;;;;;;;;;;;;;;;;;;5053858;28;20369;-70
2024/01/09 12:21:42;;;;;;;;;;;;;;;;;;5053804;28;19916;-70
2024/01/09 12:24:09;;;;;;;;;;;;;;;;;;5053515;28;20309;-70
2024/01/09 12:26:35;;;;;;;;;;;;;;;;;;5052548;28;19959;-69
2024/01/09 12:29:02;;;;;;;;;;;;;;;;;;5053666;28;19908;-69
2024/01/09 12:31:28;;;;;;;;;;;;;;;;;;5053220;28;19908;-70
2024/01/09 12:33:54;;;;;;;;;;;;;;;;;;5052816;28;19912;-69
2024/01/09 12:36:20;;;;;;;;;;;;;;;;;;5053634;28;19924;-69
2024/01/09 12:38:46;;;;;;;;;;;;;;;;;;5053071;28;19909;-69
2024/01/09 12:41:12;;;;;;;;;;;;;;;;;;5053614;28;20455;-69
2024/01/09 12:43:37;;;;;;;;;;;;;;;;;;5053593;28;19913;-69
2024/01/09 12:46:03;;;;;;;;;;;;;;;;;;5051842;28;20086;-69
2024/01/09 12:48:29;;;;;;;;;;;;;;;;;;5053599;28;19909;-70
2024/01/09 12:50:55;;;;;;;;;;;;;;;;;;5053695;28;19909;-70
2024/01/09 12:53:21;;;;;;;;;;;;;;;;;;5053139;28;19916;-69
2024/01/09 12:55:47;;;;;;;;;;;;;;;;;;5053516;28;20007;-70
2024/01/09 12:58:13;;;;;;;;;;;;;;;;;;5053584;28;19916;-71
2024/01/09 13:00:39;;;;;;;;;;;;;;;;;;5053156;28;19961;-70
2024/01/09 13:03:05;;;;;;;;;;;;;;;;;;5053422;28;20323;-70
2024/01/09 13:05:31;;;;;;;;;;;;;;;;;;5053866;28;20261;-70
2024/01/09 13:07:57;;;;;;;;;;;;;;;;;;5053058;28;20342;-70
2024/01/09 13:10:23;;;;;;;;;;;;;;;;;;5053942;28;20269;-71
2024/01/09 13:12:49;;;;;;;;;;;;;;;;;;5053006;28;20315;-70
2024/01/09 13:15:15;;;;;;;;;;;;;;;;;;5052015;28;19958;-70
2024/01/09 13:17:41;;;;;;;;;;;;;;;;;;5053249;28;19916;-70
2024/01/09 13:20:07;;;;;;;;;;;;;;;;;;5051540;28;20028;-70
2024/01/09 13:22:33;;;;;;;;;;;;;;;;;;5053280;28;20004;-70
2024/01/09 13:24:59;;;;;;;;;;;;;;;;;;5053182;28;19916;-70
2024/01/09 13:27:25;;;;;;;;;;;;;;;;;;5051508;28;19909;-70
2024/01/09 13:29:51;;;;;;;;;;;;;;;;;;5053186;28;20376;-70
2024/01/09 13:32:17;;;;;;;;;;;;;;;;;;5053512;28;20416;-69
2024/01/09 13:34:43;;;;;;;;;;;;;;;;;;5052682;28;19909;-69
2024/01/09 13:37:09;;;;;;;;;;;;;;;;;;5052969;28;19993;-70
2024/01/09 13:39:36;;;;;;;;;;;;;;;;;;5052948;28;20018;-70
2024/01/09 13:42:03;;;;;;;;;;;;;;;;;;5052600;28;19945;-69
2024/01/09 13:44:29;;;;;;;;;;;;;;;;;;5052003;28;19912;-69
2024/01/09 13:46:55;;;;;;;;;;;;;;;;;;5056478;28;19908;-69
2024/01/09 13:49:21;;;;;;;;;;;;;;;;;;5056310;28;20380;-69
2024/01/09 13:51:47;;;;;;;;;;;;;;;;;;5056451;28;19909;-69
2024/01/09 13:54:13;;;;;;;;;;;;;;;;;;5056527;28;19909;-69
2024/01/09 13:56:39;;;;;;;;;;;;;;;;;;5055780;28;19921;-69
2024/01/09 13:59:05;;;;;;;;;;;;;;;;;;5056277;28;19913;-69
2024/01/09 14:01:31;;;;;;;;;;;;;;;;;;5055079;28;19920;-69
2024/01/09 14:03:57;;;;;;;;;;;;;;;;;;5054535;28;19909;-69
2024/01/09 14:06:29;;;;;;;;;;;;;;;;;;5056324;28;19909;-69
2024/01/09 14:08:55;;;;;;;;;;;;;;;;;;5056355;28;20278;-69
2024/01/09 14:11:21;;;;;;;;;;;;;;;;;;5054388;28;19915;-69
2024/01/09 14:13:47;;;;;;;;;;;;;;;;;;5056056;28;19908;-69
2024/01/09 14:16:13;;;;;;;;;;;;;;;;;;5055635;28;19970;-69
2024/01/09 14:18:39;;;;;;;;;;;;;;;;;;5055972;28;19917;-69
2024/01/09 14:21:05;;;;;;;;;;;;;;;;;;5055936;28;19913;-69
2024/01/09 14:23:31;;;;;;;;;;;;;;;;;;5055565;28;19955;-69
2024/01/09 14:25:57;;;;;;;;;;;;;;;;;;5055868;28;19979;-69
2024/01/09 14:28:23;;;;;;;;;;;;;;;;;;5056493;28;19932;-69
2024/01/09 14:30:49;;;;;;;;;;;;;;;;;;5055704;28;19909;-69
2024/01/09 14:33:15;;;;;;;;;;;;;;;;;;5054447;28;19913;-69
2024/01/09 14:35:41;;;;;;;;;;;;;;;;;;5055654;28;19909;-69
2024/01/09 14:38:07;;;;;;;;;;;;;;;;;;5054002;28;20384;-70
2024/01/09 14:40:33;;;;;;;;;;;;;;;;;;5055537;28;19924;-69
2024/01/09 14:42:59;;;;;;;;;;;;;;;;;;5055578;28;20285;-69
2024/01/09 14:45:25;;;;;;;;;;;;;;;;;;5055261;28;19916;-70
2024/01/09 14:47:51;;;;;;;;;;;;;;;;;;5055634;28;19909;-69
2024/01/09 14:50:17;;;;;;;;;;;;;;;;;;5054501;28;19959;-69
2024/01/09 14:52:43;;;;;;;;;;;;;;;;;;5054980;28;19916;-69
2024/01/09 14:55:09;;;;;;;;;;;;;;;;;;5055110;28;20070;-69
2024/01/09 14:57:35;;;;;;;;;;;;;;;;;;5054669;28;19960;-69
2024/01/09 15:00:01;;;;;;;;;;;;;;;;;;5054762;28;20328;-69
2024/01/09 15:02:27;;;;;;;;;;;;;;;;;;5054540;28;19916;-70
2024/01/09 15:04:53;;;;;;;;;;;;;;;;;;5055104;28;19913;-69
2024/01/09 15:07:19;;;;;;;;;;;;;;;;;;5054692;28;20289;-70
2024/01/09 15:09:48;;;;;;;;;;;;;;;;;;5055344;28;20391;-70
2024/01/09 15:12:14;;;;;;;;;;;;;;;;;;5055358;28;20312;-70
2024/01/09 15:14:40;;;;;;;;;;;;;;;;;;5054646;28;19909;-70
2024/01/09 15:17:06;;;;;;;;;;;;;;;;;;5053702;28;19912;-69
2024/01/09 15:19:32;;;;;;;;;;;;;;;;;;5054395;28;20369;-70
2024/01/09 15:21:59;;;;;;;;;;;;;;;;;;5053626;28;19909;-70
2024/01/09 15:24:25;;;;;;;;;;;;;;;;;;5053567;28;19916;-70
2024/01/09 15:26:52;;;;;;;;;;;;;;;;;;5053100;28;19909;-70
2024/01/09 15:29:18;;;;;;;;;;;;;;;;;;5053503;28;19909;-70
2024/01/09 15:31:44;;;;;;;;;;;;;;;;;;5053460;28;20408;-70
2024/01/09 15:34:10;;;;;;;;;;;;;;;;;;5054225;28;19931;-70
2024/01/09 15:36:36;;;;;;;;;;;;;;;;;;5053212;28;20361;-71
2024/01/09 15:39:01;;;;;;;;;;;;;;;;;;5054613;28;19920;-69
2024/01/09 15:41:27;;;;;;;;;;;;;;;;;;5054358;28;19912;-70
2024/01/09 15:43:53;;;;;;;;;;;;;;;;;;5054429;28;19913;-69
2024/01/09 15:46:19;;;;;;;;;;;;;;;;;;5054403;28;20047;-70
2024/01/09 15:48:45;;;;;;;;;;;;;;;;;;5052679;28;19908;-69
2024/01/09 15:51:11;;;;;;;;;;;;;;;;;;5054311;28;19994;-70
2024/01/09 15:53:37;;;;;;;;;;;;;;;;;;5053068;28;19916;-70
2024/01/09 15:56:03;;;;;;;;;;;;;;;;;;5053833;28;19916;-70
2024/01/09 15:58:29;;;;;;;;;;;;;;;;;;5053002;28;19963;-69
2024/01/09 16:00:56;;;;;;;;;;;;;;;;;;5054366;28;19960;-72
2024/01/09 16:03:22;;;;;;;;;;;;;;;;;;5052455;28;19917;-69
2024/01/09 16:05:48;;;;;;;;;;;;;;;;;;5054105;28;20262;-70
2024/01/09 16:08:14;;;;;;;;;;;;;;;;;;5054014;28;19913;-70
2024/01/09 16:10:42;;;;;;;;;;;;;;;;;;5054076;28;19909;-70
2024/01/09 16:13:08;;;;;;;;;;;;;;;;;;5052701;28;19916;-69
2024/01/09 16:15:34;;;;;;;;;;;;;;;;;;5053811;28;19913;-70
2024/01/09 16:18:01;;;;;;;;;;;;;;;;;;5053748;28;20284;-71
2024/01/09 16:20:27;;;;;;;;;;;;;;;;;;5053715;28;20381;-70
2024/01/09 16:22:53;;;;;;;;;;;;;;;;;;5053743;28;19962;-70
2024/01/09 16:25:19;;;;;;;;;;;;;;;;;;5053839;28;19909;-69
2024/01/09 16:27:45;;;;;;;;;;;;;;;;;;5053846;28;20369;-70
2024/01/09 16:30:11;;;;;;;;;;;;;;;;;;5052064;28;20042;-70
2024/01/09 16:32:37;;;;;;;;;;;;;;;;;;5053735;28;19949;-70
2024/01/09 16:35:03;;;;;;;;;;;;;;;;;;5053737;28;20031;-71
2024/01/09 16:37:29;;;;;;;;;;;;;;;;;;5053252;28;19909;-69